Time;durP1;ratioP1;P1;durP2;ratioP2;P2;SDS_P1;SDS_P2;PMS_P1;PMS_P2;Temp;Humidity;BMP_temperature;BMP_pressure;BME280_temperature;BME280_humidity;BME280_pressure;Samples;Min_cycle;Max_cycle;Signal;HPM_P1;HPM_P2
2021/12/30 00:01:22;;;;;;;9.40;3.85;;;;;;;9.90;92.01;101022.53;5034585;28;20099;-86
2021/12/30 00:04:03;;;;;;;7.25;3.30;;;;;;;9.90;91.84;101030.31;5034043;28;20021;-86
2021/12/30 00:06:36;;;;;;;5.07;3.00;;;;;;;9.91;91.96;101029.41;5033874;28;20393;-86
2021/12/30 00:09:14;;;;;;;8.05;3.00;;;;;;;9.90;92.23;101030.31;5026326;28;20037;-86
2021/12/30 00:11:40;;;;;;;11.23;3.33;;;;;;;9.91;92.66;101023.38;5034214;28;20033;-86
2021/12/30 00:14:26;;;;;;;13.93;4.37;;;;;;;9.88;92.28;101026.88;5033644;28;20025;-86
2021/12/30 00:16:52;;;;;;;10.77;3.55;;;;;;;9.90;92.18;101032.91;5034064;28;20029;-86
2021/12/30 00:19:32;;;;;;;9.13;3.60;;;;;;;9.91;92.28;101031.16;5033445;28;20026;-86
2021/12/30 00:21:58;;;;;;;10.10;3.20;;;;;;;9.93;92.59;101032.00;5013610;28;20053;-86
2021/12/30 00:27:09;;;;;;;14.98;4.30;;;;;;;10.00;93.05;101041.44;5013931;28;20465;-85
2021/12/30 00:29:56;;;;;;;11.47;3.50;;;;;;;10.00;92.51;101036.25;5033881;28;20057;-86
2021/12/30 00:32:22;;;;;;;10.32;3.47;;;;;;;10.07;92.53;101047.44;5034111;28;20022;-87
2021/12/30 00:35:03;;;;;;;11.10;3.70;;;;;;;10.10;92.16;101042.22;5033009;28;20029;-86
2021/12/30 00:37:29;;;;;;;9.55;3.40;;;;;;;10.09;92.18;101048.28;5033752;28;20022;-86
2021/12/30 00:40:05;;;;;;;10.03;3.20;;;;;;;10.10;92.23;101040.47;5033490;28;20036;-86
2021/12/30 00:42:30;;;;;;;14.13;3.97;;;;;;;10.11;92.53;101052.56;5033299;28;20025;-86
2021/12/30 00:45:08;;;;;;;13.03;4.50;;;;;;;10.09;92.87;101043.09;5033596;28;20017;-86
2021/12/30 00:47:33;;;;;;;10.27;3.67;;;;;;;10.11;92.36;101055.16;5033150;28;20154;-86
2021/12/30 00:49:59;;;;;;;7.00;2.90;;;;;;;10.14;92.55;101059.44;5033449;28;20053;-86
2021/12/30 00:52:34;;;;;;;11.80;3.73;;;;;;;10.18;92.70;101064.63;5033600;28;20377;-86
2021/12/30 00:54:59;;;;;;;7.35;3.20;;;;;;;10.15;92.70;101053.38;5031599;28;20033;-86
2021/12/30 00:57:42;;;;;;;7.10;2.90;;;;;;;10.17;92.51;101065.50;5033814;28;20018;-86
2021/12/30 01:00:11;;;;;;;5.93;2.65;;;;;;;10.17;92.50;101062.03;5033132;28;20064;-86
2021/12/30 01:02:55;;;;;;;6.57;2.40;;;;;;;10.15;92.53;101054.25;5032711;28;20083;-86
2021/12/30 01:05:21;;;;;;;6.22;2.60;;;;;;;10.22;91.99;101061.97;5033017;28;20036;-86
2021/12/30 01:07:50;;;;;;;4.27;2.17;;;;;;;10.18;92.28;101050.78;5032871;28;20025;-86
2021/12/30 01:10:20;;;;;;;6.93;2.70;;;;;;;10.25;92.54;101057.59;5032662;28;20393;-86
2021/12/30 01:13:06;;;;;;;5.72;2.30;;;;;;;10.24;92.55;101058.50;5033027;28;20140;-85
2021/12/30 01:16:00;;;;;;;11.48;3.10;;;;;;;10.27;92.67;101061.03;5032509;28;20053;-86
2021/12/30 01:19:04;;;;;;;8.02;2.83;;;;;;;10.28;92.45;101062.78;5033320;28;20083;-86
2021/12/30 01:21:54;;;;;;;7.05;2.83;;;;;;;10.32;92.47;101071.38;5023866;28;20042;-86
2021/12/30 01:24:35;;;;;;;6.97;2.70;;;;;;;10.29;92.48;101069.69;5032130;28;20033;-86
2021/12/30 01:27:00;;;;;;;10.88;2.80;;;;;;;10.26;93.09;101061.06;5032718;28;20462;-86
2021/12/30 01:29:29;;;;;;;7.87;2.83;;;;;;;10.33;93.09;101068.78;5032701;28;20032;-85
2021/12/30 01:32:10;;;;;;;7.45;2.70;;;;;;;10.32;93.39;101063.59;5032771;28;20083;-86
2021/12/30 01:34:36;;;;;;;10.55;2.80;;;;;;;10.35;92.98;101074.81;5032697;28;20041;-86
2021/12/30 01:37:23;;;;;;;7.32;2.60;;;;;;;10.32;92.75;101069.66;5032235;28;20032;-86
2021/12/30 01:39:50;;;;;;;8.13;2.55;;;;;;;10.36;92.64;101067.88;5032822;28;20041;-86
2021/12/30 01:42:33;;;;;;;10.23;2.70;;;;;;;10.33;92.97;101070.50;5032564;28;20409;-86
2021/12/30 01:44:59;;;;;;;11.18;3.05;;;;;;;10.38;92.80;101068.75;5031794;28;20036;-87
2021/12/30 01:47:25;;;;;;;7.07;2.63;;;;;;;10.46;93.13;101072.13;5033010;28;20025;-86
2021/12/30 01:50:09;;;;;;;8.73;2.90;;;;;;;10.47;93.34;101060.03;5032607;28;20048;-86
2021/12/30 01:52:35;;;;;;;10.65;3.10;;;;;;;10.50;93.45;101068.63;5031517;28;20030;-86
2021/12/30 01:55:00;;;;;;;9.57;3.20;;;;;;;10.50;93.96;101071.22;5032303;28;20039;-86
2021/12/30 01:57:26;;;;;;;11.93;3.40;;;;;;;10.55;93.80;101065.97;5032755;28;20026;-86
2021/12/30 02:00:36;;;;;;;10.20;3.33;;;;;;;10.61;93.36;101075.44;5030796;28;20044;-86
2021/12/30 02:03:05;;;;;;;10.98;3.63;;;;;;;10.57;93.89;101056.44;5023470;28;20099;-86
2021/12/30 02:05:32;;;;;;;12.55;3.70;;;;;;;10.60;94.09;101047.75;5033398;28;20496;-86
2021/12/30 02:08:17;;;;;;;9.52;3.55;;;;;;;10.65;93.95;101059.78;5036522;28;20370;-86
2021/12/30 02:11:01;;;;;;;10.57;4.00;;;;;;;10.65;94.19;101049.41;5036414;28;20490;-86
2021/12/30 02:13:27;;;;;;;10.65;3.65;;;;;;;10.70;93.49;101061.47;5036011;28;20116;-86
2021/12/30 02:15:55;;;;;;;11.80;3.93;;;;;;;10.72;93.64;101062.31;5036004;28;20072;-86
2021/12/30 02:18:38;;;;;;;10.65;3.80;;;;;;;10.78;94.28;101083.00;5036719;28;20029;-87
2021/12/30 02:21:04;;;;;;;10.13;3.75;;;;;;;10.79;94.50;101085.56;5032763;28;20055;-86
2021/12/30 02:23:52;;;;;;;10.87;3.80;;;;;;;10.80;94.38;101078.66;5036598;28;20029;-86
2021/12/30 02:26:18;;;;;;;7.78;3.40;;;;;;;10.83;94.52;101083.81;5035494;28;20112;-86
2021/12/30 02:29:03;;;;;;;7.78;3.55;;;;;;;10.79;94.24;101079.53;5036275;28;20026;-85
2021/12/30 02:31:30;;;;;;;9.70;3.80;;;;;;;10.82;94.20;101076.88;5036328;28;20030;-86
2021/12/30 02:33:56;;;;;;;10.45;3.75;;;;;;;10.86;93.78;101085.53;5035073;28;20112;-86
2021/12/30 02:36:42;;;;;;;9.55;3.58;;;;;;;10.89;93.90;101082.88;5036381;28;20025;-87
2021/12/30 02:39:10;;;;;;;8.73;3.42;;;;;;;10.88;93.59;101082.03;5036157;28;20036;-87
2021/12/30 02:41:37;;;;;;;6.30;3.25;;;;;;;10.91;93.85;101081.13;5035593;28;20021;-86
2021/12/30 02:44:20;;;;;;;5.85;3.00;;;;;;;10.90;93.28;101082.00;5029520;28;20045;-86
2021/12/30 02:46:51;;;;;;;7.22;3.05;;;;;;;10.91;93.23;101079.38;5035433;28;20151;-87
2021/12/30 02:50:05;;;;;;;5.07;2.60;;;;;;;10.96;94.23;101087.13;5035518;28;20021;-86
2021/12/30 02:52:31;;;;;;;7.53;3.00;;;;;;;10.95;93.32;101081.06;4939105;29;20091;-87
2021/12/30 02:54:56;;;;;;;6.07;3.07;;;;;;;10.95;94.35;101080.22;4973779;28;20300;-87
2021/12/30 02:57:42;;;;;;;6.80;2.77;;;;;;;10.92;93.68;101078.47;5035492;28;20505;-87
2021/12/30 03:00:09;;;;;;;4.88;2.50;;;;;;;10.95;93.84;101091.44;5035691;28;20040;-86
2021/12/30 03:02:56;;;;;;;5.15;2.40;;;;;;;10.93;94.13;101081.97;5033428;28;20084;-87
2021/12/30 03:05:24;;;;;;;5.30;2.40;;;;;;;10.96;94.27;101087.97;5035814;28;20029;-88
2021/12/30 03:08:07;;;;;;;7.13;3.00;;;;;;;11.01;94.91;101089.66;5035710;28;20473;-88
2021/12/30 03:10:32;;;;;;;6.28;2.90;;;;;;;11.00;94.91;101098.31;5035767;28;20018;-85
2021/12/30 03:13:04;;;;;;;6.23;2.73;;;;;;;11.00;94.50;101096.56;5035342;28;20051;-88
2021/12/30 03:15:46;;;;;;;5.35;2.70;;;;;;;11.02;94.58;101092.22;5035149;28;20045;-88
2021/12/30 03:18:11;;;;;;;6.05;2.85;;;;;;;11.04;94.63;101102.56;5034837;28;20108;-87
2021/12/30 03:20:37;;;;;;;6.73;2.67;;;;;;;11.05;94.23;101101.69;5035215;28;20113;-87
2021/12/30 03:23:04;;;;;;;2.77;2.17;;;;;;;11.04;94.46;101097.38;5034665;28;20028;-87
2021/12/30 03:25:30;;;;;;;4.47;2.25;;;;;;;11.04;94.67;101097.38;5035261;28;20036;-87
2021/12/30 03:27:55;;;;;;;2.87;2.00;;;;;;;11.03;94.02;101093.94;5035240;28;20033;-86
2021/12/30 03:30:33;;;;;;;3.00;2.00;;;;;;;11.02;93.90;101091.38;5033600;28;20045;-87
2021/12/30 03:32:58;;;;;;;2.30;1.80;;;;;;;11.02;94.73;101093.97;5034849;28;20474;-87
2021/12/30 03:35:24;;;;;;;1.43;1.33;;;;;;;11.06;94.48;101095.63;5035108;28;20026;-87
2021/12/30 03:37:49;;;;;;;1.73;1.60;;;;;;;11.07;94.48;101094.75;5034349;28;20104;-87
2021/12/30 03:40:16;;;;;;;2.20;2.00;;;;;;;11.07;95.34;101090.44;5034714;28;20359;-87
2021/12/30 03:42:44;;;;;;;2.08;1.77;;;;;;;11.07;94.41;101086.97;5034053;28;20022;-86
2021/12/30 03:45:20;;;;;;;1.75;1.60;;;;;;;11.10;95.05;101097.31;5033943;28;20393;-87
2021/12/30 03:47:48;;;;;;;3.25;2.20;;;;;;;11.11;95.90;101101.63;5034265;28;20036;-86
2021/12/30 03:50:34;;;;;;;2.60;2.30;;;;;;;11.15;95.37;101098.09;5034011;28;20497;-86
2021/12/30 03:53:02;;;;;;;3.67;2.30;;;;;;;11.10;95.62;101098.16;5034410;28;20030;-87
2021/12/30 03:55:30;;;;;;;2.58;2.17;;;;;;;11.09;95.60;101096.44;5034399;28;20032;-86
2021/12/30 03:57:55;;;;;;;3.17;2.50;;;;;;;11.15;96.28;101097.25;5033799;28;20025;-86
2021/12/30 04:00:37;;;;;;;3.60;2.73;;;;;;;11.18;96.75;101098.06;5034563;28;20416;-86
2021/12/30 04:03:04;;;;;;;4.95;3.33;;;;;;;11.22;97.11;101096.28;5034549;28;20030;-86
2021/12/30 04:05:29;;;;;;;5.40;3.53;;;;;;;11.24;97.33;101095.41;5034074;28;20378;-86
2021/12/30 04:08:13;;;;;;;6.60;3.70;;;;;;;11.25;97.41;101097.13;5034083;28;20031;-86
2021/12/30 04:10:38;;;;;;;6.35;4.05;;;;;;;11.28;97.52;101098.81;5033902;28;20526;-86
2021/12/30 04:13:04;;;;;;;6.27;3.60;;;;;;;11.27;96.67;101087.53;5033634;28;20132;-86
2021/12/30 04:15:29;;;;;;;7.10;4.30;;;;;;;11.34;96.87;101092.66;5034476;28;20029;-86
2021/12/30 04:17:55;;;;;;;9.90;4.83;;;;;;;11.38;97.32;101105.59;5034144;28;20022;-86
2021/12/30 04:20:35;;;;;;;8.87;4.93;;;;;;;11.43;97.35;101110.72;5033177;28;20025;-86
2021/12/30 04:23:00;;;;;;;8.60;4.63;;;;;;;11.40;97.40;101116.81;5014015;28;20038;-86
2021/12/30 04:25:25;;;;;;;9.87;5.43;;;;;;;11.43;97.85;101111.56;5013842;28;20378;-85
2021/12/30 04:27:51;;;;;;;8.83;5.07;;;;;;;11.47;97.60;101119.31;5014256;28;20068;-86
2021/12/30 04:30:16;;;;;;;10.83;5.90;;;;;;;11.50;97.38;101109.72;5014464;28;20477;-86
2021/12/30 04:32:43;;;;;;;9.97;5.90;;;;;;;11.50;97.96;101114.94;5013094;28;20032;-86
2021/12/30 04:35:09;;;;;;;12.45;6.72;;;;;;;11.56;97.98;101107.06;5014227;28;20032;-85
2021/12/30 04:37:35;;;;;;;14.55;7.80;;;;;;;11.61;97.93;101124.31;5014010;28;20029;-85
2021/12/30 04:40:02;;;;;;;15.47;7.90;;;;;;;11.61;98.12;101125.19;5013012;28;20509;-86
2021/12/30 04:42:27;;;;;;;15.55;8.60;;;;;;;11.65;98.28;101119.03;5014264;28;20022;-86
2021/12/30 04:44:53;;;;;;;14.80;8.17;;;;;;;11.66;97.96;101110.34;5014019;28;20025;-85
2021/12/30 04:47:19;;;;;;;13.60;7.70;;;;;;;11.67;97.88;101112.06;5013487;28;20072;-86
2021/12/30 04:49:45;;;;;;;15.35;8.75;;;;;;;11.69;97.71;101123.31;5013762;28;20022;-86
2021/12/30 04:52:10;;;;;;;15.70;9.00;;;;;;;11.72;97.69;101125.00;5013897;28;20109;-86
2021/12/30 04:54:35;;;;;;;18.03;10.63;;;;;;;11.76;97.91;101136.25;5013268;28;20080;-86
2021/12/30 04:57:01;;;;;;;17.57;10.20;;;;;;;11.80;97.81;101124.88;5013455;28;20065;-85
2021/12/30 04:59:26;;;;;;;19.07;11.20;;;;;;;11.80;97.97;101132.69;5013866;28;20103;-85
2021/12/30 05:01:52;;;;;;;18.83;11.43;;;;;;;11.83;98.07;101122.25;5012781;28;20029;-85
2021/12/30 05:04:17;;;;;;;19.60;12.10;;;;;;;11.87;98.03;101118.72;5013804;28;20385;-86
2021/12/30 05:06:42;;;;;;;18.70;11.23;;;;;;;11.86;97.89;101130.84;5012981;28;20554;-86
2021/12/30 05:09:23;;;;;;;18.93;11.60;;;;;;;11.86;98.02;101127.41;5012417;28;20034;-85
2021/12/30 05:11:48;;;;;;;19.73;12.00;;;;;;;11.86;97.88;101119.59;5013478;28;20026;-86
2021/12/30 05:14:13;;;;;;;18.40;11.00;;;;;;;11.87;98.12;101127.38;5013475;28;20129;-86
2021/12/30 05:16:39;;;;;;;18.23;10.80;;;;;;;11.91;97.82;101135.97;5012645;28;20026;-85
2021/12/30 05:19:20;;;;;;;17.97;10.50;;;;;;;11.90;97.51;101136.84;5013305;28;20490;-85
2021/12/30 05:21:45;;;;;;;15.88;9.18;;;;;;;11.87;97.45;101139.53;5022104;28;20057;-86
2021/12/30 05:24:10;;;;;;;17.53;9.70;;;;;;;11.90;97.48;101147.25;5033297;28;20026;-85
2021/12/30 05:26:36;;;;;;;16.23;9.30;;;;;;;11.92;97.22;101139.44;5033357;28;20449;-85
2021/12/30 05:29:20;;;;;;;14.47;8.03;;;;;;;11.94;97.19;101150.66;5032428;28;20382;-86
2021/12/30 05:31:45;;;;;;;12.80;7.50;;;;;;;11.93;96.61;101157.63;5033055;28;20048;-85
2021/12/30 05:34:11;;;;;;;16.03;9.00;;;;;;;11.93;97.22;101169.78;5032453;28;20068;-86
2021/12/30 05:36:36;;;;;;;14.70;8.80;;;;;;;11.91;97.35;101161.97;5032270;28;20108;-85
2021/12/30 05:39:02;;;;;;;18.43;11.23;;;;;;;12.04;97.01;101158.34;5032411;28;20036;-86
2021/12/30 05:41:36;;;;;;;18.00;11.30;;;;;;;11.98;97.50;101166.25;5026025;28;20465;-85
2021/12/30 05:44:02;;;;;;;17.08;10.55;;;;;;;12.02;97.62;101167.91;5031940;28;20068;-86
2021/12/30 05:46:27;;;;;;;16.23;9.90;;;;;;;12.04;97.51;101175.72;5032788;28;20017;-85
2021/12/30 05:49:04;;;;;;;17.67;11.20;;;;;;;12.04;97.58;101175.72;5032759;28;20029;-86
2021/12/30 05:51:30;;;;;;;16.23;10.40;;;;;;;12.10;96.92;101172.16;5031953;28;20025;-84
2021/12/30 05:53:55;;;;;;;16.47;11.00;;;;;;;12.14;97.17;101185.06;5032217;28;20492;-86
2021/12/30 05:56:41;;;;;;;14.77;9.67;;;;;;;12.14;96.50;101173.78;5032854;28;20112;-86
2021/12/30 05:59:06;;;;;;;14.52;9.65;;;;;;;12.24;96.42;101187.53;5032190;28;20025;-85
2021/12/30 06:01:32;;;;;;;14.00;9.10;;;;;;;12.19;96.38;101185.84;5032980;28;20497;-86
2021/12/30 06:04:09;;;;;;;11.57;8.00;;;;;;;12.21;96.26;101178.03;5031861;28;20068;-86
2021/12/30 06:06:37;;;;;;;10.77;7.43;;;;;;;12.24;96.11;101184.91;5032337;28;20029;-86
2021/12/30 06:09:03;;;;;;;10.75;7.40;;;;;;;12.24;95.60;101180.56;5032384;28;20441;-86
2021/12/30 06:11:28;;;;;;;10.37;6.83;;;;;;;12.20;95.82;101164.16;5031998;28;20057;-86
2021/12/30 06:14:14;;;;;;;10.13;7.10;;;;;;;12.21;95.48;101170.22;5031674;28;20030;-86
2021/12/30 06:16:40;;;;;;;;;;;;;;;12.22;95.58;101179.72;5032922;28;20033;-86
2021/12/30 06:19:26;;;;;;;11.43;7.27;;;;;;;12.18;95.31;101178.91;5032023;28;19909;-86
2021/12/30 06:21:51;;;;;;;12.73;7.82;;;;;;;12.28;94.98;101187.44;5031665;28;20056;-86
2021/12/30 06:24:17;;;;;;;12.90;8.00;;;;;;;12.26;94.97;101186.59;5032820;28;20025;-86
2021/12/30 06:26:42;;;;;;;12.83;7.70;;;;;;;12.28;95.33;101189.16;5031502;28;20385;-86
2021/12/30 06:29:07;;;;;;;12.37;7.87;;;;;;;12.26;95.13;101190.97;5032329;28;20029;-86
2021/12/30 06:31:33;;;;;;;14.80;8.37;;;;;;;12.26;94.91;101183.16;5032444;28;20367;-86
2021/12/30 06:33:58;;;;;;;13.33;8.07;;;;;;;12.26;94.96;101183.16;5031250;28;20083;-86
2021/12/30 06:36:23;;;;;;;11.47;7.37;;;;;;;12.23;94.92;101176.25;5032401;28;20071;-86
2021/12/30 06:38:50;;;;;;;14.07;8.03;;;;;;;12.20;95.03;101176.31;5032391;28;20112;-87
2021/12/30 06:41:17;;;;;;;;;;;;;;;12.24;94.96;101192.72;5032093;28;20432;-86
2021/12/30 06:43:42;;;;;;;15.38;9.48;;;;;;;12.26;94.75;101194.41;5032192;28;19967;-86
2021/12/30 06:46:20;;;;;;;16.43;9.90;;;;;;;12.25;94.47;101186.63;5031309;28;20033;-86
2021/12/30 06:48:46;;;;;;;14.75;9.50;;;;;;;12.29;94.56;101202.19;5032126;28;20024;-86
2021/12/30 06:51:35;;;;;;;16.33;10.10;;;;;;;12.28;94.48;101177.03;5032525;28;20022;-87
2021/12/30 06:54:01;;;;;;;14.30;8.88;;;;;;;12.33;94.38;101190.81;5034556;28;20029;-86
2021/12/30 06:56:27;;;;;;;15.55;9.50;;;;;;;12.35;94.15;101203.81;5036086;28;20120;-86
2021/12/30 06:59:05;;;;;;;15.80;9.67;;;;;;;12.33;94.14;101206.44;5035464;28;20117;-86
2021/12/30 07:01:31;;;;;;;13.25;8.32;;;;;;;12.31;94.17;101204.75;5035125;28;20021;-86
2021/12/30 07:03:57;;;;;;;13.93;8.70;;;;;;;12.31;94.30;101229.03;5035673;28;20029;-87
2021/12/30 07:06:43;;;;;;;13.67;8.30;;;;;;;12.31;94.06;101218.63;5036404;28;20032;-89
2021/12/30 07:09:27;;;;;;;12.95;7.88;;;;;;;12.34;94.01;101228.13;5035593;28;20029;-89
2021/12/30 07:11:54;;;;;;;13.35;8.63;;;;;;;12.33;93.79;101231.59;5020943;28;20033;-88
2021/12/30 07:14:41;;;;;;;13.98;8.68;;;;;;;12.39;93.83;101243.66;5034415;28;20059;-88
2021/12/30 07:17:09;;;;;;;12.25;7.63;;;;;;;12.35;93.73;101233.28;5035572;28;20030;-89
2021/12/30 07:19:37;;;;;;;11.95;7.53;;;;;;;12.38;93.81;101228.91;5036037;28;20080;-89
2021/12/30 07:22:08;;;;;;;13.48;8.45;;;;;;;12.34;93.42;101234.16;5035714;28;20056;-88
2021/12/30 07:24:45;;;;;;;12.10;7.53;;;;;;;12.37;93.53;101246.31;5035156;28;20052;-82
2021/12/30 07:27:11;;;;;;;12.75;7.90;;;;;;;12.37;93.84;101246.31;5035300;28;20381;-82
2021/12/30 07:29:36;;;;;;;13.97;8.37;;;;;;;12.43;93.67;101245.34;5034573;28;20021;-81
2021/12/30 07:32:10;;;;;;;17.50;10.70;;;;;;;12.43;93.71;101255.75;5034252;28;20079;-81
2021/12/30 07:34:45;;;;;;;16.17;9.60;;;;;;;12.40;93.52;101248.81;5035047;28;20049;-82
2021/12/30 07:37:14;;;;;;;16.10;9.40;;;;;;;12.43;93.71;101259.19;5034584;28;20022;-82
2021/12/30 07:39:40;;;;;;;15.85;9.77;;;;;;;12.42;93.60;101257.47;5032035;28;20033;-82
2021/12/30 07:42:05;;;;;;;13.93;8.80;;;;;;;12.42;93.70;101262.69;5034259;28;20026;-82
2021/12/30 07:44:30;;;;;;;15.03;9.20;;;;;;;12.41;93.57;101276.59;5034309;28;20057;-82
2021/12/30 07:46:55;;;;;;;14.80;9.30;;;;;;;12.41;93.53;101266.16;5034591;28;20022;-82
2021/12/30 07:49:21;;;;;;;16.43;10.07;;;;;;;12.43;93.60;101260.97;5033685;28;20063;-82
2021/12/30 07:51:46;;;;;;;17.00;10.90;;;;;;;12.42;93.59;101270.50;5034433;28;20374;-82
2021/12/30 07:54:11;;;;;;;16.70;10.43;;;;;;;12.45;93.50;101280.00;5034539;28;20117;-82
2021/12/30 07:56:36;;;;;;;17.53;11.07;;;;;;;12.44;93.66;101273.94;5033782;28;20025;-82
2021/12/30 07:59:02;;;;;;;17.50;11.13;;;;;;;12.49;93.27;101273.84;5034188;28;20469;-81
2021/12/30 08:01:27;;;;;;;15.47;9.70;;;;;;;12.51;93.15;101270.34;5040803;23;20053;-82
2021/12/30 08:03:52;;;;;;;14.87;9.50;;;;;;;12.49;93.15;101274.75;5033280;28;20550;-82
2021/12/30 08:06:18;;;;;;;15.67;8.83;;;;;;;12.46;93.24;101266.97;5035006;28;20052;-89
2021/12/30 08:08:44;;;;;;;14.87;8.97;;;;;;;12.46;92.74;101261.75;5034955;28;20116;-89
2021/12/30 08:11:25;;;;;;;14.05;8.30;;;;;;;12.41;92.95;101263.56;5057705;23;20050;-90
2021/12/30 08:13:55;;;;;;;11.90;7.38;;;;;;;12.41;93.05;101266.16;5014909;28;20474;-88
2021/12/30 08:16:21;;;;;;;11.20;7.15;;;;;;;12.42;93.06;101285.28;5014848;28;20101;-86
2021/12/30 08:18:52;;;;;;;12.60;7.07;;;;;;;12.40;92.81;101289.63;5014005;28;20124;-87
2021/12/30 08:21:26;;;;;;;10.90;6.65;;;;;;;12.38;92.67;101286.19;5016254;28;20035;-88
2021/12/30 08:24:04;;;;;;;10.68;6.43;;;;;;;12.35;92.70;101303.56;5022705;28;20028;-88
2021/12/30 08:26:41;;;;;;;10.52;6.00;;;;;;;12.39;92.87;101308.72;5032588;28;20025;-87
2021/12/30 08:29:26;;;;;;;10.32;6.00;;;;;;;12.39;93.10;101293.13;5033560;28;20030;-88
2021/12/30 08:32:11;;;;;;;8.95;5.30;;;;;;;12.46;92.88;101306.03;5033901;28;20029;-88
2021/12/30 08:35:00;;;;;;;7.45;4.72;;;;;;;12.54;92.70;101289.41;5034433;28;20371;-88
2021/12/30 08:37:41;;;;;;;7.32;4.50;;;;;;;12.45;92.68;101295.59;4935946;28;20043;-89
2021/12/30 08:40:09;;;;;;;6.18;4.10;;;;;;;12.50;92.64;101304.22;4994591;28;20018;-88
2021/12/30 08:42:47;;;;;;;5.10;3.60;;;;;;;12.46;92.29;101290.41;4994652;28;20471;-90
2021/12/30 08:46:05;;;;;;;3.97;3.17;;;;;;;12.46;92.38;101305.13;4997180;28;20102;-90
2021/12/30 08:48:45;;;;;;;4.32;2.92;;;;;;;12.44;92.46;101314.75;5014408;28;20034;-90
2021/12/30 08:51:19;;;;;;;3.88;3.00;;;;;;;12.44;92.51;101319.94;5033118;28;20026;-90
2021/12/30 08:53:44;;;;;;;3.75;2.80;;;;;;;12.45;92.53;101332.94;5024805;28;20079;-89
2021/12/30 08:56:27;;;;;;;4.03;2.80;;;;;;;12.47;92.39;101331.16;5030727;28;20033;-89
2021/12/30 08:58:53;;;;;;;4.43;3.17;;;;;;;12.45;92.74;101337.25;5034070;28;20546;-90
2021/12/30 09:01:29;;;;;;;4.17;2.93;;;;;;;12.50;92.56;101354.53;5033740;28;20057;-90
2021/12/30 09:04:10;;;;;;;5.65;3.60;;;;;;;12.51;92.54;101347.59;5025221;28;20116;-90
2021/12/30 09:06:35;;;;;;;6.05;3.65;;;;;;;12.53;92.42;101351.03;5029214;28;20057;-89
2021/12/30 09:09:10;;;;;;;6.73;4.20;;;;;;;12.59;91.92;101345.72;5021228;28;20156;-88
2021/12/30 09:11:45;;;;;;;;;;;;;;;;;;;;;
2021/12/30 09:14:13;;;;;;;9.25;4.97;;;;;;;12.66;92.08;101344.75;5017290;28;20045;-89
2021/12/30 09:16:56;;;;;;;8.27;4.60;;;;;;;12.70;91.71;101336.88;5034059;28;20029;-91
2021/12/30 09:19:25;;;;;;;6.55;4.30;;;;;;;12.71;91.93;101342.09;5024283;28;20029;-89
2021/12/30 09:21:50;;;;;;;9.68;4.30;;;;;;;12.76;91.44;101340.25;5010811;28;20375;-91
2021/12/30 09:24:18;;;;;;;6.07;3.90;;;;;;;12.77;91.73;101347.19;5022866;28;20031;-91
2021/12/30 09:27:01;;;;;;;6.38;3.92;;;;;;;12.81;91.09;101353.19;5033652;28;20087;-90
2021/12/30 09:29:26;;;;;;;6.18;3.90;;;;;;;12.81;91.08;101346.25;5023586;28;20030;-91
2021/12/30 09:31:52;;;;;;;6.93;3.80;;;;;;;12.91;90.74;101346.94;5027826;28;20022;-89
2021/12/30 09:34:20;;;;;;;8.70;4.33;;;;;;;12.89;90.70;101351.31;5032501;28;20039;-90
2021/12/30 09:37:09;;;;;;;8.10;4.45;;;;;;;12.95;90.30;101371.19;5030992;28;20042;-90
2021/12/30 09:39:38;;;;;;;7.05;4.07;;;;;;;12.94;90.46;101364.28;5027813;28;20095;-91
2021/12/30 09:42:19;;;;;;;6.50;3.53;;;;;;;12.97;90.38;101369.41;5031728;28;21090;-88
2021/12/30 09:44:45;;;;;;;5.70;3.40;;;;;;;13.04;90.13;101376.28;5033248;28;20601;-89
2021/12/30 09:47:25;;;;;;;6.60;3.40;;;;;;;13.07;89.84;101381.41;5024477;28;20108;-89
2021/12/30 09:49:52;;;;;;;6.28;3.30;;;;;;;13.05;89.55;101383.22;5020331;28;20080;-89
2021/12/30 09:52:18;;;;;;;8.07;3.60;;;;;;;13.05;89.33;101380.59;5030950;28;20022;-88
2021/12/30 09:55:04;;;;;;;6.37;3.50;;;;;;;13.04;89.21;101384.09;5016650;28;20026;-89
2021/12/30 09:57:30;;;;;;;7.50;3.40;;;;;;;13.06;89.14;101387.50;5031738;28;20033;-89
2021/12/30 10:00:15;;;;;;;7.33;3.23;;;;;;;13.09;88.58;101397.03;5031807;28;20026;-88
2021/12/30 10:02:55;;;;;;;6.18;3.50;;;;;;;13.06;88.75;101382.28;5015129;28;20021;-89
2021/12/30 10:05:45;;;;;;;7.53;3.45;;;;;;;13.09;89.14;101379.63;5031868;28;20116;-88
2021/12/30 10:08:36;;;;;;;5.75;3.10;;;;;;;13.18;88.64;101378.63;5009186;28;20030;-89
2021/12/30 10:11:05;;;;;;;4.90;2.90;;;;;;;13.14;88.70;101379.56;5024794;28;20041;-89
2021/12/30 10:13:55;;;;;;;6.63;3.17;;;;;;;13.15;88.18;101381.28;5018977;28;20369;-89
2021/12/30 10:16:36;;;;;;;6.85;3.30;;;;;;;13.14;88.21;101376.94;5033678;23;20049;-89
2021/12/30 10:19:25;;;;;;;10.63;3.72;;;;;;;13.17;87.72;101397.75;5029674;28;20029;-88
2021/12/30 10:22:35;;;;;;;10.10;3.80;;;;;;;13.19;87.41;101389.91;5039981;23;20271;-88
2021/12/30 10:25:01;;;;;;;9.05;3.60;;;;;;;13.21;87.55;101390.75;4887836;29;20598;-89
2021/12/30 10:27:29;;;;;;;7.97;3.20;;;;;;;13.20;87.44;101391.63;4921551;28;20033;-89
2021/12/30 10:30:27;;;;;;;7.13;3.20;;;;;;;13.27;87.19;101393.25;4992363;28;20149;-87
2021/12/30 10:32:52;;;;;;;8.75;3.47;;;;;;;13.24;87.03;101390.69;4983219;28;20061;-87
2021/12/30 10:35:18;;;;;;;8.27;3.37;;;;;;;13.28;86.89;101393.22;4994516;28;20034;-91
2021/12/30 10:38:03;;;;;;;8.90;3.20;;;;;;;13.28;86.95;101382.78;4995691;28;20026;-87
2021/12/30 10:40:50;;;;;;;7.80;3.22;;;;;;;13.26;86.49;101388.94;4997069;28;20062;-90
2021/12/30 10:43:25;;;;;;;9.10;3.40;;;;;;;13.29;86.65;101388.84;4997692;28;20030;-90
2021/12/30 10:46:17;;;;;;;8.65;3.33;;;;;;;13.31;86.68;101394.06;4997407;28;20041;-90
2021/12/30 10:49:09;;;;;;;10.70;3.60;;;;;;;13.31;86.62;101397.50;4997341;28;20073;-91
2021/12/30 10:51:39;;;;;;;9.07;3.28;;;;;;;13.30;86.19;101390.56;4997152;28;20026;-90
2021/12/30 10:54:35;;;;;;;10.02;3.53;;;;;;;13.26;86.57;101381.94;4998865;28;20034;-90
2021/12/30 10:57:06;;;;;;;6.32;2.40;;;;;;;13.34;86.96;101399.22;4997338;28;20034;-91
2021/12/30 10:59:49;;;;;;;9.40;3.35;;;;;;;13.36;86.82;101402.63;4996684;28;20525;-89
2021/12/30 11:02:36;;;;;;;5.97;2.70;;;;;;;13.38;86.75;101400.88;4997273;28;20034;-91
2021/12/30 11:05:19;;;;;;;8.55;3.00;;;;;;;13.38;85.77;101395.66;4996859;28;20030;-91
2021/12/30 11:07:47;;;;;;;9.48;2.97;;;;;;;13.46;85.17;101396.41;4995965;28;20026;-88
2021/12/30 11:10:14;;;;;;;7.85;3.00;;;;;;;13.47;85.20;101403.34;4997327;28;20034;-90
2021/12/30 11:13:09;;;;;;;6.03;2.85;;;;;;;13.49;85.83;101406.78;4996060;28;20022;-90
2021/12/30 11:15:38;;;;;;;9.93;3.33;;;;;;;13.46;85.80;101403.38;4997029;28;20052;-90
2021/12/30 11:18:20;;;;;;;6.80;2.70;;;;;;;13.44;85.79;101406.03;4996783;28;20022;-89
2021/12/30 11:20:56;;;;;;;7.55;2.67;;;;;;;13.48;85.68;101412.03;4996399;28;20038;-89
2021/12/30 11:23:22;;;;;;;5.45;2.60;;;;;;;13.51;85.41;101406.78;5010830;28;20433;-86
2021/12/30 11:25:47;;;;;;;7.40;2.80;;;;;;;13.50;85.67;101405.03;5015214;28;20025;-89
2021/12/30 11:28:13;;;;;;;7.43;2.70;;;;;;;13.53;85.44;101397.13;5015575;28;20036;-89
2021/12/30 11:30:51;;;;;;;6.28;2.58;;;;;;;13.60;85.28;101385.72;5015127;28;20026;-90
2021/12/30 11:33:16;;;;;;;6.97;2.60;;;;;;;13.67;85.03;101384.72;5014680;28;20113;-89
2021/12/30 11:35:42;;;;;;;5.10;2.43;;;;;;;13.74;85.45;101377.63;5015536;28;20108;-90
2021/12/30 11:38:19;;;;;;;4.97;2.60;;;;;;;13.76;84.87;101388.88;5014963;28;20022;-89
2021/12/30 11:40:46;;;;;;;7.53;2.72;;;;;;;13.74;85.20;101391.50;5014661;28;20113;-88
2021/12/30 11:43:12;;;;;;;6.80;2.53;;;;;;;13.79;85.39;101390.56;5014471;28;20034;-89
2021/12/30 11:45:54;;;;;;;6.25;2.42;;;;;;;13.79;84.47;101393.19;5015289;28;20057;-88
2021/12/30 11:48:25;;;;;;;10.05;2.80;;;;;;;13.80;83.58;101392.28;5014267;28;20056;-88
2021/12/30 11:51:08;;;;;;;7.88;2.75;;;;;;;13.81;84.58;101397.47;5014220;28;20108;-90